createdAt,value
2023-02-11T00:00:51.137Z,49.46
2023-02-11T00:04:15.007Z,49.59
2023-02-11T00:07:38.578Z,49.57
2023-02-11T00:11:16.207Z,49.60
2023-02-11T00:15:00.336Z,49.59
2023-02-11T00:22:11.765Z,49.49
2023-02-11T00:25:42.730Z,49.66
2023-02-11T00:29:06.085Z,49.67
2023-02-11T00:32:34.936Z,49.60
2023-02-11T00:36:05.879Z,49.50
2023-02-11T00:39:27.908Z,49.53
2023-02-11T00:42:53.956Z,49.57
2023-02-11T00:46:22.302Z,49.38
2023-02-11T00:49:46.704Z,49.62
2023-02-11T00:53:08.626Z,49.31
2023-02-11T00:56:45.654Z,49.46
2023-02-11T01:00:08.602Z,49.46
2023-02-11T01:03:31.557Z,49.47
2023-02-11T01:06:54.305Z,49.46
2023-02-11T01:10:16.232Z,49.46
2023-02-11T01:13:40.107Z,49.31
2023-02-11T01:17:19.777Z,49.33
2023-02-11T01:20:45.184Z,49.41
2023-02-11T01:24:12.747Z,49.45
2023-02-11T01:27:38.110Z,49.34
2023-02-11T01:31:03.940Z,49.27
2023-02-11T01:34:30.220Z,49.35
2023-02-11T01:37:52.197Z,49.18
2023-02-11T01:41:25.748Z,49.35
2023-02-11T01:44:54.786Z,49.33
2023-02-11T01:48:47.193Z,49.32
2023-02-11T01:52:26.877Z,49.24
2023-02-11T01:56:07.415Z,49.22
2023-02-11T01:59:39.734Z,49.30
2023-02-11T02:03:16.888Z,49.25
2023-02-11T02:06:54.923Z,49.26
2023-02-11T02:10:21.422Z,49.29
2023-02-11T02:13:43.238Z,49.12
2023-02-11T02:17:21.306Z,49.17
2023-02-11T02:21:11.246Z,49.14
2023-02-11T02:25:13.415Z,49.26
2023-02-11T02:29:00.376Z,49.30
2023-02-11T02:33:23.338Z,49.34
2023-02-11T02:36:59.194Z,49.27
2023-02-11T02:40:46.650Z,49.34
2023-02-11T02:44:09.506Z,49.42
2023-02-11T02:47:34.952Z,49.41
2023-02-11T02:51:43.049Z,49.30
2023-02-11T02:55:25.301Z,49.31
2023-02-11T02:59:11.668Z,49.22
2023-02-11T03:03:01.120Z,49.28
2023-02-11T03:06:39.043Z,49.31
2023-02-11T03:10:14.219Z,49.28
2023-02-11T03:13:46.030Z,49.20
2023-02-11T03:17:27.618Z,49.19
2023-02-11T03:21:00.950Z,49.22
2023-02-11T03:24:36.948Z,49.20
2023-02-11T03:29:04.526Z,49.19
2023-02-11T03:32:36.666Z,49.31
2023-02-11T03:36:07.648Z,49.09
2023-02-11T03:39:36.835Z,49.12
2023-02-11T03:43:04.642Z,49.09
2023-02-11T03:46:34.843Z,49.09
2023-02-11T03:49:59.293Z,49.07
2023-02-11T03:53:22.831Z,49.06
2023-02-11T03:57:08.836Z,48.90
2023-02-11T04:00:38.284Z,48.95
2023-02-11T04:04:00.142Z,49.01
2023-02-11T04:07:22.119Z,49.01
2023-02-11T04:10:43.921Z,48.90
2023-02-11T04:14:06.801Z,48.90
2023-02-11T04:17:28.685Z,48.87
2023-02-11T04:21:03.215Z,48.83
2023-02-11T04:24:28.521Z,48.83
2023-02-11T04:27:52.426Z,48.76
2023-02-11T04:31:14.717Z,48.85
2023-02-11T04:34:36.658Z,48.78
2023-02-11T04:37:58.546Z,48.81
2023-02-11T04:41:20.847Z,48.84
2023-02-11T04:44:44.852Z,48.63
2023-02-11T04:48:14.274Z,48.80
2023-02-11T04:51:37.179Z,48.68
2023-02-11T04:55:00.643Z,48.72
2023-02-11T04:58:26.987Z,48.68
2023-02-11T05:01:50.129Z,48.71
2023-02-11T05:05:12.324Z,48.72
2023-02-11T05:08:35.293Z,48.56
2023-02-11T05:11:57.090Z,48.55
2023-02-11T05:15:22.947Z,48.51
2023-02-11T05:18:47.538Z,48.56
2023-02-11T05:22:11.305Z,48.42
2023-02-11T05:25:38.130Z,48.58
2023-02-11T05:29:08.737Z,48.52
2023-02-11T05:32:33.858Z,48.45
2023-02-11T05:36:04.147Z,48.57
2023-02-11T05:39:38.819Z,48.42
2023-02-11T05:43:00.781Z,48.39
2023-02-11T05:46:24.450Z,48.39
2023-02-11T05:49:46.710Z,48.34
2023-02-11T05:53:10.491Z,48.36
2023-02-11T05:56:35.592Z,48.38
2023-02-11T05:59:57.604Z,48.35
2023-02-11T06:03:22.390Z,48.35
2023-02-11T06:06:49.359Z,48.33
2023-02-11T06:10:14.729Z,48.28
2023-02-11T06:13:36.556Z,48.17
2023-02-11T06:16:59.371Z,48.31
2023-02-11T06:20:22.917Z,48.17
2023-02-11T06:23:45.448Z,48.19
2023-02-11T06:27:39.313Z,48.15
2023-02-11T06:31:09.330Z,48.13
2023-02-11T06:34:31.446Z,48.14
2023-02-11T06:38:09.717Z,48.07
2023-02-11T06:41:31.865Z,47.98
2023-02-11T06:44:53.761Z,48.10
2023-02-11T06:48:16.455Z,47.99
2023-02-11T06:51:38.951Z,48.02
2023-02-11T06:55:00.812Z,47.90
2023-02-11T06:58:22.772Z,47.75
2023-02-11T07:01:45.642Z,47.84
2023-02-11T07:05:16.919Z,47.76
2023-02-11T07:08:43.627Z,47.71
2023-02-11T07:12:07.769Z,47.74
2023-02-11T07:15:29.717Z,47.71
2023-02-11T07:18:52.801Z,47.70
2023-02-11T07:22:14.659Z,47.64
2023-02-11T07:25:38.110Z,47.59
2023-02-11T07:29:02.247Z,47.64
2023-02-11T07:32:24.359Z,47.74
2023-02-11T07:35:51.392Z,47.71
2023-02-11T07:39:16.831Z,47.68
2023-02-11T07:42:44.695Z,47.78
2023-02-11T07:46:11.625Z,47.82
2023-02-11T07:49:39.884Z,47.78
2023-02-11T07:53:03.659Z,47.94
2023-02-11T07:56:29.623Z,47.95
2023-02-11T07:59:51.473Z,47.90
2023-02-11T08:03:13.294Z,47.89
2023-02-11T08:06:40.851Z,47.94
2023-02-11T08:10:02.832Z,48.02
2023-02-11T08:13:27.143Z,48.02
2023-02-11T08:16:51.666Z,47.92
2023-02-11T08:20:14.529Z,47.97
2023-02-11T08:23:38.974Z,48.17
2023-02-11T08:27:01.523Z,48.18
2023-02-11T08:30:25.096Z,48.06
2023-02-11T08:33:58.322Z,48.25
2023-02-11T08:37:23.027Z,48.37
2023-02-11T08:40:48.299Z,48.37
2023-02-11T08:44:18.727Z,48.30
2023-02-11T08:47:41.202Z,48.38
2023-02-11T08:51:15.275Z,48.49
2023-02-11T08:54:44.721Z,48.49
2023-02-11T08:58:06.930Z,48.60
2023-02-11T09:01:31.171Z,48.68
2023-02-11T09:04:53.026Z,48.64
2023-02-11T09:08:15.449Z,48.57
2023-02-11T09:11:37.408Z,48.83
2023-02-11T09:14:59.440Z,48.82
2023-02-11T09:18:23.578Z,48.76
2023-02-11T09:21:46.491Z,48.82
2023-02-11T09:25:08.675Z,48.78
2023-02-11T09:28:30.635Z,48.88
2023-02-11T09:31:52.871Z,49.01
2023-02-11T09:35:18.093Z,48.96
2023-02-11T09:38:40.001Z,48.92
2023-02-11T09:42:45.005Z,48.93
2023-02-11T09:46:13.717Z,49.04
2023-02-11T09:49:48.009Z,49.23
2023-02-11T09:53:31.785Z,49.19
2023-02-11T09:56:55.730Z,49.29
2023-02-11T10:00:20.529Z,49.17
2023-02-11T10:03:45.270Z,49.37
2023-02-11T10:07:33.142Z,49.44
2023-02-11T10:11:32.450Z,49.39
2023-02-11T10:15:03.249Z,49.60
2023-02-11T10:18:25.009Z,49.64
2023-02-11T10:22:06.093Z,49.72
2023-02-11T10:25:37.341Z,49.78
2023-02-11T10:29:02.504Z,49.87
2023-02-11T10:32:52.059Z,49.77
2023-02-11T10:36:15.451Z,49.93
2023-02-11T10:39:40.242Z,51.91
2023-02-11T10:43:05.194Z,52.08
2023-02-11T10:46:31.990Z,52.08
2023-02-11T10:49:53.914Z,52.25
2023-02-11T10:53:22.391Z,52.22
2023-02-11T10:56:54.766Z,52.29
2023-02-11T11:00:40.344Z,52.29
2023-02-11T11:04:02.411Z,52.27
2023-02-11T11:07:34.180Z,52.30
2023-02-11T11:11:10.288Z,52.08
2023-02-11T11:14:32.102Z,52.25
2023-02-11T11:18:22.603Z,52.05
2023-02-11T11:21:47.491Z,52.26
2023-02-11T11:25:26.996Z,52.20
2023-02-11T11:29:01.460Z,52.13
2023-02-11T11:32:29.788Z,52.41
2023-02-11T11:35:59.971Z,53.72
2023-02-11T11:39:25.587Z,53.52
2023-02-11T11:43:04.879Z,53.49
2023-02-11T11:46:35.970Z,53.35
2023-02-11T11:50:12.466Z,53.35
2023-02-11T11:53:51.449Z,53.42
2023-02-11T11:57:17.604Z,53.21
2023-02-11T12:00:52.473Z,53.22
2023-02-11T12:04:23.482Z,53.31
2023-02-11T12:08:00.723Z,53.16
2023-02-11T12:11:38.655Z,53.19
2023-02-11T12:15:07.452Z,52.98
2023-02-11T12:18:42.040Z,53.05
2023-02-11T12:22:18.876Z,52.88
2023-02-11T12:25:50.959Z,52.99
2023-02-11T12:29:22.235Z,52.93
2023-02-11T12:33:07.097Z,52.84
2023-02-11T12:36:55.328Z,52.74
2023-02-11T12:40:17.198Z,52.84
2023-02-11T12:43:41.299Z,52.76
2023-02-11T12:47:14.499Z,52.77
2023-02-11T12:50:42.442Z,52.74
2023-02-11T12:54:32.895Z,52.68
2023-02-11T12:57:57.999Z,52.84
2023-02-11T13:01:27.378Z,52.72
2023-02-11T13:04:56.175Z,52.77
2023-02-11T13:08:43.796Z,52.68
2023-02-11T13:12:25.830Z,54.60
2023-02-11T13:15:52.282Z,55.71
2023-02-11T13:19:14.159Z,56.41
2023-02-11T13:22:51.182Z,57.26
2023-02-11T13:26:47.748Z,58.21
2023-02-11T13:30:30.584Z,58.04
2023-02-11T13:33:53.228Z,58.67
2023-02-11T13:37:23.793Z,58.73
2023-02-11T13:40:45.835Z,58.88
2023-02-11T13:44:10.778Z,59.93
2023-02-11T13:47:34.227Z,59.92
2023-02-11T13:51:06.183Z,60.49
2023-02-11T13:54:34.873Z,60.86
2023-02-11T13:58:05.992Z,61.26
2023-02-11T14:02:12.539Z,60.90
2023-02-11T14:05:53.448Z,61.32
2023-02-11T14:09:18.108Z,61.53
2023-02-11T14:12:42.584Z,60.42
2023-02-11T14:16:35.599Z,59.73
2023-02-11T14:20:01.970Z,59.50
2023-02-11T14:23:28.324Z,59.32
2023-02-11T14:27:23.264Z,59.61
2023-02-11T14:31:10.907Z,59.83
2023-02-11T14:34:40.839Z,59.67
2023-02-11T14:38:12.841Z,59.84
2023-02-11T14:41:46.444Z,59.69
2023-02-11T14:45:11.691Z,59.65
2023-02-11T14:48:35.339Z,59.44
2023-02-11T14:52:27.417Z,59.57
2023-02-11T14:55:54.584Z,59.74
2023-02-11T14:59:26.160Z,59.54
2023-02-11T15:02:48.697Z,59.46
2023-02-11T15:06:16.951Z,59.39
2023-02-11T15:09:46.698Z,59.33
2023-02-11T15:13:09.085Z,59.25
2023-02-11T15:16:32.568Z,59.14
2023-02-11T15:19:57.462Z,58.99
2023-02-11T15:23:27.556Z,58.85
2023-02-11T15:27:11.385Z,58.83
2023-02-11T15:30:36.727Z,58.66
2023-02-11T15:34:09.755Z,58.56
2023-02-11T15:37:31.670Z,58.30
2023-02-11T15:40:58.505Z,58.41
2023-02-11T15:44:30.506Z,58.05
2023-02-11T15:48:06.524Z,58.12
2023-02-11T15:51:38.068Z,57.98
2023-02-11T15:55:03.554Z,57.92
2023-02-11T15:58:25.418Z,57.81
2023-02-11T16:01:48.158Z,57.80
2023-02-11T16:05:27.246Z,57.69
2023-02-11T16:09:11.895Z,57.59
2023-02-11T16:12:33.670Z,57.60
2023-02-11T16:16:13.751Z,57.56
2023-02-11T16:19:37.761Z,57.37
2023-02-11T16:23:00.297Z,57.37
2023-02-11T16:26:33.114Z,57.29
2023-02-11T16:29:55.020Z,57.38
2023-02-11T16:33:16.864Z,57.15
2023-02-11T16:36:41.440Z,57.05
2023-02-11T16:40:03.287Z,56.94
2023-02-11T16:43:25.156Z,56.96
2023-02-11T16:46:47.527Z,56.84
2023-02-11T16:50:11.654Z,56.75
2023-02-11T16:53:34.897Z,56.88
2023-02-11T16:56:57.578Z,56.64
2023-02-11T17:00:19.934Z,56.62
2023-02-11T17:03:43.762Z,56.48
2023-02-11T17:07:05.790Z,56.60
2023-02-11T17:10:27.686Z,56.59
2023-02-11T17:13:49.617Z,56.40
2023-02-11T17:17:12.046Z,56.51
2023-02-11T17:20:33.913Z,56.33
2023-02-11T17:23:55.843Z,56.46
2023-02-11T17:27:25.104Z,56.41
2023-02-11T17:30:54.399Z,56.33
2023-02-11T17:34:16.944Z,56.23
2023-02-11T17:37:38.779Z,56.36
2023-02-11T17:41:01.809Z,56.28
2023-02-11T17:44:23.776Z,56.30
2023-02-11T17:47:46.238Z,56.23
2023-02-11T17:51:32.659Z,56.31
2023-02-11T17:54:55.461Z,56.31
2023-02-11T17:58:17.297Z,56.12
2023-02-11T18:01:43.751Z,56.09
2023-02-11T18:05:06.508Z,56.01
2023-02-11T18:08:28.567Z,56.14
2023-02-11T18:11:52.683Z,56.02
2023-02-11T18:15:14.551Z,55.90
2023-02-11T18:18:36.385Z,55.84
2023-02-11T18:22:00.958Z,55.92
2023-02-11T18:25:24.005Z,56.12
2023-02-11T18:28:46.300Z,55.94
2023-02-11T18:32:08.352Z,55.82
2023-02-11T18:35:30.239Z,55.95
2023-02-11T18:38:57.109Z,55.82
2023-02-11T18:42:18.926Z,55.82
2023-02-11T18:45:45.269Z,55.78
2023-02-11T18:49:07.323Z,55.76
2023-02-11T18:52:29.217Z,55.54
2023-02-11T18:55:52.228Z,55.56
2023-02-11T18:59:14.509Z,55.71
2023-02-11T19:02:37.216Z,55.84
2023-02-11T19:05:59.058Z,55.51
2023-02-11T19:09:21.073Z,55.66
2023-02-11T19:12:43.913Z,55.34
2023-02-11T19:16:22.160Z,55.38
2023-02-11T19:19:44.163Z,55.65
2023-02-11T19:23:05.981Z,55.51
2023-02-11T19:26:29.239Z,56.21
2023-02-11T19:29:51.164Z,56.99
2023-02-11T19:33:12.970Z,57.79
2023-02-11T19:36:37.160Z,58.47
2023-02-11T19:39:58.970Z,58.78
2023-02-11T19:43:20.948Z,59.17
2023-02-11T19:46:43.203Z,59.52
2023-02-11T19:50:06.425Z,59.92
2023-02-11T19:53:28.295Z,60.09
2023-02-11T19:56:50.297Z,60.53
2023-02-11T20:00:12.770Z,60.78
2023-02-11T20:03:35.066Z,61.02
2023-02-11T20:06:56.891Z,61.13
2023-02-11T20:10:18.844Z,61.28
2023-02-11T20:13:40.765Z,61.92
2023-02-11T20:17:06.788Z,61.77
2023-02-11T20:20:28.678Z,62.05
2023-02-11T20:23:51.421Z,62.12
2023-02-11T20:27:13.606Z,62.37
2023-02-11T20:30:37.587Z,63.32
2023-02-11T20:34:01.247Z,64.04
2023-02-11T20:37:23.053Z,64.05
2023-02-11T20:40:45.085Z,64.24
2023-02-11T20:44:09.955Z,64.11
2023-02-11T20:47:31.756Z,64.08
2023-02-11T20:50:54.265Z,63.81
2023-02-11T20:54:22.802Z,63.43
2023-02-11T20:57:46.990Z,63.22
2023-02-11T21:01:17.093Z,62.84
2023-02-11T21:04:39.971Z,62.84
2023-02-11T21:08:23.805Z,62.47
2023-02-11T21:11:45.780Z,62.42
2023-02-11T21:15:09.760Z,62.46
2023-02-11T21:18:32.003Z,62.36
2023-02-11T21:21:58.741Z,62.31
2023-02-11T21:25:24.307Z,61.93
2023-02-11T21:28:52.931Z,62.03
2023-02-11T21:32:21.119Z,61.91
2023-02-11T21:35:43.966Z,61.73
2023-02-11T21:39:54.210Z,61.55
2023-02-11T21:43:02.794Z,61.37
2023-02-11T21:46:25.079Z,61.15
2023-02-11T21:49:46.950Z,61.05
2023-02-11T21:53:09.140Z,61.05
2023-02-11T21:56:36.894Z,60.73
2023-02-11T21:59:58.783Z,60.68
2023-02-11T22:03:20.707Z,60.33
2023-02-11T22:06:42.538Z,60.17
2023-02-11T22:10:05.034Z,60.16
2023-02-11T22:13:30.613Z,59.70
2023-02-11T22:16:52.591Z,59.80
2023-02-11T22:20:16.153Z,59.53
2023-02-11T22:23:39.328Z,59.40
2023-02-11T22:27:01.527Z,59.19
2023-02-11T22:30:23.400Z,59.07
2023-02-11T22:33:46.385Z,58.99
2023-02-11T22:37:08.452Z,58.98
2023-02-11T22:40:30.315Z,58.84
2023-02-11T22:43:52.095Z,58.64
2023-02-11T22:47:14.020Z,58.56
2023-02-11T22:50:35.876Z,58.59
2023-02-11T22:54:03.287Z,58.40
2023-02-11T22:57:25.052Z,58.14
2023-02-11T23:00:46.941Z,58.07
2023-02-11T23:04:11.681Z,57.92
2023-02-11T23:07:33.614Z,57.74
2023-02-11T23:10:55.938Z,57.42
2023-02-11T23:14:17.710Z,57.29
2023-02-11T23:17:39.464Z,57.06
2023-02-11T23:21:11.315Z,57.10
2023-02-11T23:24:34.131Z,57.07
2023-02-11T23:27:56.138Z,57.00
2023-02-11T23:31:24.078Z,56.87
2023-02-11T23:34:46.020Z,56.71
2023-02-11T23:38:07.878Z,56.33
2023-02-11T23:41:29.891Z,56.41
2023-02-11T23:44:51.753Z,56.30
2023-02-11T23:48:13.644Z,56.13
2023-02-11T23:51:35.453Z,56.16
2023-02-11T23:54:57.212Z,56.03
2023-02-11T23:58:19.096Z,55.98
